createdAt,value
2022-12-23T00:00:45.470Z,83.16
2022-12-23T00:03:24.806Z,82.96
2022-12-23T00:05:53.155Z,82.94
2022-12-23T00:08:21.904Z,82.49
2022-12-23T00:10:50.508Z,81.13
2022-12-23T00:13:19.079Z,81.13
2022-12-23T00:15:47.994Z,81.30
2022-12-23T00:18:15.901Z,81.30
2022-12-23T00:20:43.826Z,81.29
2022-12-23T00:23:11.698Z,81.15
2022-12-23T00:25:42.551Z,80.27
2022-12-23T00:28:12.668Z,80.62
2022-12-23T00:30:48.737Z,81.39
2022-12-23T00:33:18.093Z,82.21
2022-12-23T00:35:46.377Z,82.55
2022-12-23T00:38:14.696Z,83.11
2022-12-23T00:40:44.730Z,84.29
2022-12-23T00:43:12.885Z,84.57
2022-12-23T00:45:40.553Z,84.89
2022-12-23T00:48:10.137Z,87.08
2022-12-23T00:50:39.375Z,88.45
2022-12-23T00:53:07.535Z,87.31
2022-12-23T00:55:35.009Z,86.65
2022-12-23T00:58:02.991Z,85.41
2022-12-23T01:00:30.610Z,84.84
2022-12-23T01:02:59.024Z,84.34
2022-12-23T01:05:28.262Z,83.56
2022-12-23T01:07:56.580Z,83.48
2022-12-23T01:10:24.216Z,83.09
2022-12-23T01:12:52.605Z,82.78
2022-12-23T01:15:20.091Z,83.55
2022-12-23T01:17:48.468Z,82.54
2022-12-23T01:20:16.123Z,81.75
2022-12-23T01:22:45.912Z,80.90
2022-12-23T01:25:14.021Z,80.36
2022-12-23T01:27:41.952Z,81.45
2022-12-23T01:30:10.369Z,83.86
2022-12-23T01:32:38.227Z,83.26
2022-12-23T01:35:06.473Z,83.63
2022-12-23T01:37:34.976Z,82.55
2022-12-23T01:40:04.924Z,80.94
2022-12-23T01:42:33.462Z,80.05
2022-12-23T01:45:02.295Z,80.69
2022-12-23T01:47:36.399Z,81.46
2022-12-23T01:50:08.798Z,82.66
2022-12-23T01:52:43.145Z,82.44
2022-12-23T01:55:14.077Z,83.89
2022-12-23T01:57:44.311Z,83.26
2022-12-23T02:00:18.118Z,83.04
2022-12-23T02:02:51.334Z,82.31
2022-12-23T02:05:19.323Z,81.17
2022-12-23T02:07:47.791Z,80.94
2022-12-23T02:10:16.915Z,80.37
2022-12-23T02:12:52.527Z,79.72
2022-12-23T02:15:32.233Z,80.25
2022-12-23T02:18:12.088Z,79.86
2022-12-23T02:21:14.684Z,80.25
2022-12-23T02:24:18.867Z,79.04
2022-12-23T02:30:20.158Z,77.62
2022-12-23T02:33:13.452Z,78.18
2022-12-23T02:35:47.167Z,78.94
2022-12-23T02:38:20.914Z,78.46
2022-12-23T02:40:59.234Z,78.48
2022-12-23T02:43:34.252Z,79.03
2022-12-23T02:46:07.681Z,78.98
2022-12-23T02:48:44.401Z,78.26
2022-12-23T02:51:15.002Z,77.76
2022-12-23T02:53:47.965Z,77.88
2022-12-23T02:56:18.807Z,77.10
2022-12-23T02:58:54.655Z,77.58
2022-12-23T03:01:24.695Z,76.09
2022-12-23T03:03:57.031Z,76.78
2022-12-23T03:06:29.240Z,77.07
2022-12-23T03:08:59.412Z,77.32
2022-12-23T03:11:39.326Z,77.78
2022-12-23T03:14:23.074Z,77.48
2022-12-23T03:17:00.912Z,78.05
2022-12-23T03:19:40.163Z,79.33
2022-12-23T03:22:17.420Z,79.05
2022-12-23T03:24:53.618Z,78.77
2022-12-23T03:27:27.886Z,79.04
2022-12-23T03:30:00.567Z,78.92
2022-12-23T03:32:32.421Z,78.71
2022-12-23T03:35:04.757Z,78.63
2022-12-23T03:37:36.795Z,78.24
2022-12-23T03:40:10.799Z,77.89
2022-12-23T03:42:42.801Z,76.76
2022-12-23T03:45:38.118Z,76.87
2022-12-23T03:48:10.094Z,76.97
2022-12-23T03:50:41.539Z,77.27
2022-12-23T03:53:15.404Z,78.03
2022-12-23T03:55:48.690Z,77.97
2022-12-23T03:58:25.986Z,77.97
2022-12-23T04:00:59.005Z,78.51
2022-12-23T04:03:36.672Z,80.02
2022-12-23T04:06:11.134Z,80.97
2022-12-23T04:08:42.130Z,81.65
2022-12-23T04:11:10.035Z,82.65
2022-12-23T04:13:38.256Z,83.48
2022-12-23T04:16:07.227Z,84.46
2022-12-23T04:18:35.203Z,84.36
2022-12-23T04:21:02.607Z,84.71
2022-12-23T04:23:32.007Z,85.95
2022-12-23T04:25:59.565Z,87.19
2022-12-23T04:28:27.556Z,88.25
2022-12-23T04:30:55.370Z,88.12
2022-12-23T04:33:23.295Z,87.88
2022-12-23T04:35:50.997Z,87.34
2022-12-23T04:38:19.210Z,85.17
2022-12-23T04:40:48.087Z,80.74
2022-12-23T04:43:16.122Z,80.25
2022-12-23T04:45:43.684Z,79.74
2022-12-23T04:48:11.638Z,79.27
2022-12-23T04:50:39.912Z,79.59
2022-12-23T04:53:07.715Z,84.00
2022-12-23T04:55:35.276Z,86.17
2022-12-23T04:58:04.786Z,87.15
2022-12-23T05:00:38.957Z,87.00
2022-12-23T05:03:07.829Z,86.86
2022-12-23T05:05:35.566Z,86.09
2022-12-23T05:08:05.270Z,86.12
2022-12-23T05:10:32.932Z,86.07
2022-12-23T05:13:00.891Z,85.94
2022-12-23T05:15:31.163Z,85.83
2022-12-23T05:17:59.500Z,85.70
2022-12-23T05:20:27.023Z,85.15
2022-12-23T05:22:55.588Z,85.58
2022-12-23T05:25:23.092Z,85.74
2022-12-23T05:27:51.133Z,85.26
2022-12-23T05:30:18.861Z,85.47
2022-12-23T05:32:48.620Z,85.65
2022-12-23T05:35:16.439Z,85.92
2022-12-23T05:37:44.917Z,85.70
2022-12-23T05:40:14.229Z,84.99
2022-12-23T05:42:45.249Z,84.82
2022-12-23T05:45:12.988Z,84.95
2022-12-23T05:47:40.938Z,85.51
2022-12-23T05:50:10.759Z,86.36
2022-12-23T05:52:39.044Z,86.18
2022-12-23T05:55:07.904Z,86.74
2022-12-23T05:57:35.850Z,86.36
2022-12-23T06:00:04.494Z,85.63
2022-12-23T06:02:32.543Z,84.64
2022-12-23T06:05:00.455Z,84.60
2022-12-23T06:07:30.164Z,84.70
2022-12-23T06:09:57.978Z,84.92
2022-12-23T06:12:25.976Z,85.20
2022-12-23T06:14:53.369Z,85.17
2022-12-23T06:17:21.587Z,85.23
2022-12-23T06:19:49.257Z,85.69
2022-12-23T06:22:17.687Z,85.89
2022-12-23T06:24:46.799Z,86.31
2022-12-23T06:27:15.206Z,86.56
2022-12-23T06:29:42.845Z,86.30
2022-12-23T06:32:11.198Z,86.05
2022-12-23T06:34:38.745Z,85.79
2022-12-23T06:37:06.837Z,86.14
2022-12-23T06:39:34.348Z,86.21
2022-12-23T06:42:04.039Z,85.56
2022-12-23T06:44:31.595Z,85.28
2022-12-23T06:46:59.649Z,85.48
2022-12-23T06:49:27.308Z,85.16
2022-12-23T06:51:55.417Z,85.84
2022-12-23T06:54:23.072Z,85.35
2022-12-23T06:56:50.985Z,85.54
2022-12-23T06:59:20.044Z,85.19
2022-12-23T07:01:48.200Z,85.20
2022-12-23T07:04:15.865Z,85.30
2022-12-23T07:06:43.858Z,86.00
2022-12-23T07:09:11.608Z,86.04
2022-12-23T07:11:39.615Z,85.63
2022-12-23T07:14:07.329Z,86.25
2022-12-23T07:16:36.741Z,85.08
2022-12-23T07:19:04.387Z,85.17
2022-12-23T07:21:32.341Z,85.60
2022-12-23T07:23:59.846Z,85.16
2022-12-23T07:26:27.814Z,85.09
2022-12-23T07:28:55.264Z,85.45
2022-12-23T07:31:23.486Z,85.65
2022-12-23T07:33:52.516Z,85.95
2022-12-23T07:36:20.392Z,84.80
2022-12-23T07:38:49.842Z,84.37
2022-12-23T07:41:18.016Z,84.17
2022-12-23T07:43:45.707Z,84.01
2022-12-23T07:46:13.782Z,83.88
2022-12-23T07:48:41.526Z,83.64
2022-12-23T07:51:11.022Z,83.80
2022-12-23T07:53:38.601Z,84.63
2022-12-23T07:56:07.264Z,84.30
2022-12-23T07:58:35.027Z,84.17
2022-12-23T08:01:04.835Z,84.10
2022-12-23T08:03:32.697Z,83.59
2022-12-23T08:06:02.333Z,82.38
2022-12-23T08:08:31.902Z,82.57
2022-12-23T08:11:00.772Z,82.42
2022-12-23T08:13:28.470Z,82.53
2022-12-23T08:15:57.537Z,82.77
2022-12-23T08:18:28.628Z,82.15
2022-12-23T08:20:57.508Z,81.69
2022-12-23T08:23:26.483Z,81.94
2022-12-23T08:26:03.972Z,81.96
2022-12-23T08:28:32.056Z,81.49
2022-12-23T08:31:05.627Z,82.43
2022-12-23T08:33:33.341Z,81.82
2022-12-23T08:36:03.303Z,81.90
2022-12-23T08:38:30.963Z,81.49
2022-12-23T08:40:59.122Z,80.61
2022-12-23T08:43:35.278Z,82.15
2022-12-23T08:46:04.622Z,82.27
2022-12-23T08:48:33.290Z,81.56
2022-12-23T08:51:03.647Z,80.93
2022-12-23T08:53:31.500Z,81.45
2022-12-23T08:56:02.613Z,80.66
2022-12-23T08:58:35.998Z,80.52
2022-12-23T09:01:04.427Z,80.68
2022-12-23T09:03:32.235Z,80.27
2022-12-23T09:06:08.131Z,80.38
2022-12-23T09:08:35.874Z,79.32
2022-12-23T09:11:04.810Z,79.72
2022-12-23T09:13:35.828Z,79.39
2022-12-23T09:16:05.018Z,79.57
2022-12-23T09:18:32.914Z,79.69
2022-12-23T09:21:01.833Z,78.71
2022-12-23T09:23:29.960Z,78.50
2022-12-23T09:25:58.248Z,78.95
2022-12-23T09:28:26.120Z,79.01
2022-12-23T09:30:55.585Z,79.09
2022-12-23T09:33:23.188Z,79.06
2022-12-23T09:35:50.931Z,78.98
2022-12-23T09:38:18.416Z,78.42
2022-12-23T09:40:46.285Z,78.73
2022-12-23T09:43:24.721Z,78.64
2022-12-23T09:46:03.264Z,78.51
2022-12-23T09:48:35.428Z,79.75
2022-12-23T09:51:04.187Z,80.02
2022-12-23T09:53:46.965Z,81.93
2022-12-23T09:56:20.070Z,82.30
2022-12-23T09:58:52.236Z,81.76
2022-12-23T10:01:29.967Z,82.13
2022-12-23T10:04:30.969Z,81.34
2022-12-23T10:07:23.000Z,81.78
2022-12-23T10:09:54.141Z,81.32
2022-12-23T10:12:39.848Z,81.51
2022-12-23T10:15:19.685Z,81.79
2022-12-23T10:17:52.781Z,81.96
2022-12-23T10:20:30.221Z,81.81
2022-12-23T10:22:59.579Z,81.80
2022-12-23T10:25:32.651Z,81.50
2022-12-23T10:28:00.686Z,81.57
2022-12-23T10:31:05.375Z,81.50
2022-12-23T10:33:25.356Z,80.72
2022-12-23T10:36:04.105Z,81.13
2022-12-23T10:38:44.468Z,80.22
2022-12-23T10:41:22.933Z,80.31
2022-12-23T10:44:18.740Z,80.28
2022-12-23T10:46:55.863Z,80.03
2022-12-23T10:49:34.475Z,80.21
2022-12-23T10:52:05.825Z,79.49
2022-12-23T10:54:35.660Z,80.19
2022-12-23T10:57:05.350Z,79.78
2022-12-23T10:59:35.653Z,79.69
2022-12-23T11:02:16.774Z,80.36
2022-12-23T11:04:48.262Z,79.73
2022-12-23T11:10:17.070Z,79.55
2022-12-23T11:12:47.001Z,80.06
2022-12-23T11:15:29.923Z,80.62
2022-12-23T11:18:03.956Z,80.04
2022-12-23T11:20:34.173Z,80.37
2022-12-23T11:23:04.510Z,80.48
2022-12-23T11:25:35.890Z,81.17
2022-12-23T11:28:11.399Z,81.02
2022-12-23T11:30:56.287Z,80.93
2022-12-23T11:33:27.265Z,81.76
2022-12-23T11:36:14.163Z,82.11
2022-12-23T11:38:50.329Z,82.50
2022-12-23T11:41:20.981Z,81.96
2022-12-23T11:43:56.527Z,81.81
2022-12-23T11:46:26.883Z,81.73
2022-12-23T11:49:14.021Z,81.07
2022-12-23T11:51:44.053Z,79.95
2022-12-23T11:54:17.132Z,79.66
2022-12-23T11:56:48.032Z,80.08
2022-12-23T11:59:29.639Z,78.39
2022-12-23T12:02:00.203Z,78.55
2022-12-23T12:04:31.131Z,78.34
2022-12-23T12:07:01.882Z,77.91
2022-12-23T12:09:31.376Z,77.19
2022-12-23T12:12:04.657Z,77.10
2022-12-23T12:14:36.721Z,77.50
2022-12-23T12:17:18.098Z,76.71
2022-12-23T12:19:59.265Z,76.80
2022-12-23T12:22:36.241Z,77.14
2022-12-23T12:25:15.595Z,77.68
2022-12-23T12:27:47.848Z,77.58
2022-12-23T12:30:18.925Z,77.61
2022-12-23T12:32:56.929Z,77.20
2022-12-23T12:35:36.028Z,77.92
2022-12-23T12:38:16.249Z,78.43
2022-12-23T12:40:49.559Z,79.74
2022-12-23T12:43:27.111Z,80.02
2022-12-23T12:46:06.605Z,79.78
2022-12-23T12:48:45.727Z,80.15
2022-12-23T12:51:21.320Z,80.01
2022-12-23T12:54:05.153Z,79.71
2022-12-23T12:56:39.554Z,80.25
2022-12-23T12:59:13.862Z,80.23
2022-12-23T13:02:01.022Z,80.43
2022-12-23T13:04:43.814Z,80.21
2022-12-23T13:07:22.758Z,80.57
2022-12-23T13:09:58.857Z,80.92
2022-12-23T13:12:39.325Z,81.04
2022-12-23T13:15:19.005Z,81.28
2022-12-23T13:17:58.833Z,81.33
2022-12-23T13:20:35.693Z,80.36
2022-12-23T13:23:41.517Z,80.39
2022-12-23T13:26:11.629Z,80.48
2022-12-23T13:28:45.671Z,80.02
2022-12-23T13:31:23.925Z,79.58
2022-12-23T13:33:59.855Z,79.82
2022-12-23T13:36:42.523Z,79.89
2022-12-23T13:39:28.948Z,79.96
2022-12-23T13:42:05.650Z,79.43
2022-12-23T13:44:35.621Z,79.40
2022-12-23T13:47:12.466Z,79.31
2022-12-23T13:49:52.806Z,78.82
2022-12-23T13:52:33.862Z,78.61
2022-12-23T13:57:55.988Z,78.84
2022-12-23T14:00:27.001Z,78.71
2022-12-23T14:03:16.984Z,79.27
2022-12-23T14:05:46.002Z,79.50
2022-12-23T14:08:40.765Z,79.72
2022-12-23T14:11:15.968Z,80.47
2022-12-23T14:13:53.530Z,80.87
2022-12-23T14:16:41.924Z,80.80
2022-12-23T14:19:34.455Z,80.77
2022-12-23T14:22:21.774Z,80.19
2022-12-23T14:25:26.026Z,80.87
2022-12-23T14:27:58.547Z,80.70
2022-12-23T14:30:34.344Z,80.95
2022-12-23T14:33:04.071Z,79.82
2022-12-23T14:35:54.253Z,79.73
2022-12-23T14:38:25.034Z,80.12
2022-12-23T14:41:15.241Z,79.66
2022-12-23T14:43:54.866Z,79.55
2022-12-23T14:46:53.568Z,79.57
2022-12-23T14:49:39.010Z,79.37
2022-12-23T14:52:50.236Z,79.90
2022-12-23T14:55:53.679Z,79.27
2022-12-23T14:58:59.595Z,79.93
2022-12-23T15:01:33.894Z,81.06
2022-12-23T15:04:08.349Z,82.60
2022-12-23T15:06:39.564Z,83.89
2022-12-23T15:09:10.113Z,84.07
2022-12-23T15:11:40.486Z,83.99
2022-12-23T15:14:22.129Z,84.00
2022-12-23T15:16:51.134Z,83.87
2022-12-23T15:19:22.664Z,83.55
2022-12-23T15:21:59.250Z,83.10
2022-12-23T15:24:28.331Z,83.51
2022-12-23T15:27:25.182Z,82.80
2022-12-23T15:29:47.926Z,82.66
2022-12-23T15:32:18.485Z,82.10
2022-12-23T15:34:48.662Z,81.45
2022-12-23T15:37:19.466Z,80.66
2022-12-23T15:39:48.256Z,80.44
2022-12-23T15:42:22.262Z,79.87
2022-12-23T15:44:50.342Z,80.24
2022-12-23T15:47:38.642Z,81.48
2022-12-23T15:50:13.384Z,81.52
2022-12-23T15:52:43.337Z,80.99
2022-12-23T15:55:14.385Z,81.11
2022-12-23T15:57:49.698Z,82.21
2022-12-23T16:00:19.965Z,82.45
2022-12-23T16:03:11.879Z,82.67
2022-12-23T16:05:39.402Z,82.55
2022-12-23T16:08:28.202Z,82.61
2022-12-23T16:11:05.399Z,84.13
2022-12-23T16:13:33.345Z,83.42
2022-12-23T16:16:32.222Z,82.75
2022-12-23T16:19:01.584Z,82.05
2022-12-23T16:21:32.759Z,82.22
2022-12-23T16:24:00.998Z,81.90
2022-12-23T16:26:29.368Z,82.92
2022-12-23T16:29:00.865Z,83.54
2022-12-23T16:31:29.028Z,83.51
2022-12-23T16:33:58.417Z,83.82
2022-12-23T16:36:36.149Z,83.15
2022-12-23T16:39:17.837Z,82.77
2022-12-23T16:41:45.918Z,81.76
2022-12-23T16:44:13.676Z,81.51
2022-12-23T16:46:44.516Z,81.30
2022-12-23T16:49:15.714Z,80.83
2022-12-23T16:51:45.912Z,79.90
2022-12-23T16:54:15.486Z,79.79
2022-12-23T16:56:44.249Z,79.33
2022-12-23T16:59:11.808Z,78.17
2022-12-23T17:01:43.533Z,78.00
2022-12-23T17:04:11.305Z,77.46
2022-12-23T17:06:40.664Z,76.90
2022-12-23T17:09:11.870Z,77.84
2022-12-23T17:11:43.492Z,79.00
2022-12-23T17:14:16.503Z,80.27
2022-12-23T17:16:45.122Z,81.96
2022-12-23T17:19:13.415Z,82.99
2022-12-23T17:21:43.626Z,82.57
2022-12-23T17:24:19.240Z,82.12
2022-12-23T17:26:47.239Z,81.75
2022-12-23T17:29:14.833Z,81.53
2022-12-23T17:31:44.341Z,80.82
2022-12-23T17:34:15.863Z,80.29
2022-12-23T17:36:49.523Z,80.85
2022-12-23T17:39:19.365Z,80.82
2022-12-23T17:41:48.110Z,80.90
2022-12-23T17:44:17.040Z,80.30
2022-12-23T17:46:45.631Z,80.30
2022-12-23T17:49:13.418Z,80.87
2022-12-23T17:51:42.518Z,81.16
2022-12-23T17:54:21.116Z,81.12
2022-12-23T17:56:49.326Z,80.07
2022-12-23T17:59:19.758Z,81.03
2022-12-23T18:01:50.851Z,80.88
2022-12-23T18:04:18.660Z,80.39
2022-12-23T18:06:46.760Z,79.93
2022-12-23T18:09:14.355Z,79.75
2022-12-23T18:11:45.065Z,79.87
2022-12-23T18:14:21.256Z,80.15
2022-12-23T18:16:52.275Z,80.26
2022-12-23T18:19:21.575Z,80.92
2022-12-23T18:21:52.190Z,81.23
2022-12-23T18:24:20.227Z,79.90
2022-12-23T18:26:49.791Z,79.89
2022-12-23T18:29:17.426Z,79.44
2022-12-23T18:31:52.155Z,79.27
2022-12-23T18:34:20.670Z,78.92
2022-12-23T18:36:49.100Z,79.17
2022-12-23T18:39:16.691Z,79.09
2022-12-23T18:41:44.701Z,79.61
2022-12-23T18:44:18.425Z,80.22
2022-12-23T18:46:46.382Z,80.20
2022-12-23T18:49:13.956Z,79.30
2022-12-23T18:51:41.820Z,79.91
2022-12-23T18:54:13.065Z,78.95
2022-12-23T18:56:41.041Z,78.65
2022-12-23T18:59:15.978Z,78.54
2022-12-23T19:01:44.489Z,78.63
2022-12-23T19:04:12.181Z,78.77
2022-12-23T19:06:40.828Z,78.88
2022-12-23T19:09:08.389Z,77.72
2022-12-23T19:11:36.474Z,77.15
2022-12-23T19:14:04.047Z,79.78
2022-12-23T19:16:33.597Z,80.26
2022-12-23T19:19:01.143Z,80.32
2022-12-23T19:21:29.091Z,81.90
2022-12-23T19:23:56.732Z,81.99
2022-12-23T19:26:24.732Z,82.20
2022-12-23T19:28:52.295Z,81.89
2022-12-23T19:31:20.433Z,82.50
2022-12-23T19:33:49.509Z,83.27
2022-12-23T19:36:20.476Z,85.05
2022-12-23T19:38:47.969Z,86.27
2022-12-23T19:41:16.063Z,86.40
2022-12-23T19:43:45.428Z,85.17
2022-12-23T19:46:14.826Z,83.74
2022-12-23T19:48:42.887Z,83.06
2022-12-23T19:51:14.471Z,82.24
2022-12-23T19:53:42.794Z,81.63
2022-12-23T19:56:12.437Z,81.18
2022-12-23T19:58:42.936Z,80.18
2022-12-23T20:01:17.903Z,80.81
2022-12-23T20:03:47.088Z,82.44
2022-12-23T20:06:19.095Z,82.62
2022-12-23T20:08:46.721Z,83.04
2022-12-23T20:11:17.503Z,83.20
2022-12-23T20:13:46.003Z,83.40
2022-12-23T20:16:14.065Z,83.04
2022-12-23T20:18:41.700Z,82.15
2022-12-23T20:21:10.051Z,81.92
2022-12-23T20:23:39.012Z,82.01
2022-12-23T20:26:07.309Z,82.49
2022-12-23T20:28:34.751Z,82.94
2022-12-23T20:31:07.555Z,83.58
2022-12-23T20:33:35.259Z,83.21
2022-12-23T20:36:03.496Z,82.76
2022-12-23T20:38:31.172Z,81.81
2022-12-23T20:41:00.813Z,81.79
2022-12-23T20:43:28.430Z,82.68
2022-12-23T20:45:56.571Z,82.59
2022-12-23T20:48:26.901Z,82.39
2022-12-23T20:51:04.199Z,82.13
2022-12-23T20:53:32.218Z,81.34
2022-12-23T20:56:02.599Z,81.11
2022-12-23T20:58:30.290Z,81.59
2022-12-23T21:01:08.153Z,81.72
2022-12-23T21:03:35.979Z,83.46
2022-12-23T21:06:04.685Z,83.63
2022-12-23T21:08:32.669Z,84.54
2022-12-23T21:11:03.503Z,83.72
2022-12-23T21:13:31.214Z,83.05
2022-12-23T21:16:03.161Z,83.19
2022-12-23T21:18:30.907Z,82.86
2022-12-23T21:21:00.439Z,82.55
2022-12-23T21:23:28.812Z,82.40
2022-12-23T21:26:09.774Z,83.59
2022-12-23T21:28:38.264Z,83.16
2022-12-23T21:31:07.050Z,82.54
2022-12-23T21:33:36.764Z,81.56
2022-12-23T21:36:06.023Z,81.20
2022-12-23T21:38:34.996Z,81.43
2022-12-23T21:41:06.626Z,81.45
2022-12-23T21:43:36.082Z,81.87
2022-12-23T21:46:06.789Z,81.86
2022-12-23T21:48:36.191Z,83.27
2022-12-23T21:51:06.109Z,84.82
2022-12-23T21:53:34.353Z,85.69
2022-12-23T21:56:03.563Z,86.76
2022-12-23T21:58:31.612Z,87.34
2022-12-23T22:01:05.699Z,88.87
2022-12-23T22:03:33.515Z,88.82
2022-12-23T22:06:09.923Z,88.73
2022-12-23T22:08:38.726Z,89.32
2022-12-23T22:11:07.568Z,89.47
2022-12-23T22:13:35.085Z,89.30
2022-12-23T22:16:08.870Z,89.50
2022-12-23T22:18:37.192Z,89.95
2022-12-23T22:21:05.672Z,89.77
2022-12-23T22:23:33.331Z,89.35
2022-12-23T22:26:01.330Z,89.54
2022-12-23T22:28:31.400Z,90.16
2022-12-23T22:31:02.822Z,89.70
2022-12-23T22:33:32.191Z,89.35
2022-12-23T22:36:00.927Z,88.47
2022-12-23T22:38:28.586Z,87.98
2022-12-23T22:40:56.716Z,86.91
2022-12-23T22:43:24.316Z,87.23
2022-12-23T22:45:56.698Z,87.20
2022-12-23T22:48:24.768Z,87.09
2022-12-23T22:51:02.160Z,87.38
2022-12-23T22:53:30.169Z,87.26
2022-12-23T22:55:59.002Z,86.93
2022-12-23T22:58:28.006Z,86.24
2022-12-23T23:00:56.085Z,85.49
2022-12-23T23:03:23.907Z,85.14
2022-12-23T23:06:05.527Z,84.10
2022-12-23T23:08:33.888Z,84.47
2022-12-23T23:11:03.816Z,84.81
2022-12-23T23:13:34.175Z,84.49
2022-12-23T23:16:02.889Z,84.83
2022-12-23T23:18:30.957Z,84.91
2022-12-23T23:20:58.941Z,85.30
2022-12-23T23:23:27.907Z,85.82
2022-12-23T23:25:55.991Z,85.73
2022-12-23T23:28:23.533Z,84.75
2022-12-23T23:31:09.767Z,84.35
2022-12-23T23:33:39.328Z,84.03
2022-12-23T23:36:08.313Z,83.46
2022-12-23T23:38:37.366Z,83.17
2022-12-23T23:41:05.936Z,82.79
2022-12-23T23:43:33.469Z,82.62
2022-12-23T23:46:01.430Z,82.47
2022-12-23T23:48:29.117Z,82.44
2022-12-23T23:51:04.057Z,82.22
2022-12-23T23:53:31.572Z,82.92
2022-12-23T23:56:06.690Z,83.66
2022-12-23T23:58:34.893Z,85.47
